sensor_id;sensor_type;location;lat;lon;timestamp;P1;durP1;ratioP1;P2;durP2;ratioP2
71715;SDS011;59568;52.128;5.434;2024-01-30T00:01:07;14.55;;;6.93;;
71715;SDS011;59568;52.128;5.434;2024-01-30T00:03:34;12.10;;;6.65;;
71715;SDS011;59568;52.128;5.434;2024-01-30T00:06:02;12.03;;;6.97;;
71715;SDS011;59568;52.128;5.434;2024-01-30T00:08:30;9.60;;;6.25;;
71715;SDS011;59568;52.128;5.434;2024-01-30T00:10:57;11.65;;;6.97;;
71715;SDS011;59568;52.128;5.434;2024-01-30T00:13:23;10.40;;;6.13;;
71715;SDS011;59568;52.128;5.434;2024-01-30T00:15:50;12.60;;;7.25;;
71715;SDS011;59568;52.128;5.434;2024-01-30T00:18:17;10.67;;;6.53;;
71715;SDS011;59568;52.128;5.434;2024-01-30T00:20:45;12.10;;;6.00;;
71715;SDS011;59568;52.128;5.434;2024-01-30T00:23:12;9.93;;;6.05;;
71715;SDS011;59568;52.128;5.434;2024-01-30T00:25:38;11.95;;;7.15;;
71715;SDS011;59568;52.128;5.434;2024-01-30T00:28:05;12.52;;;6.60;;
71715;SDS011;59568;52.128;5.434;2024-01-30T00:30:32;14.87;;;6.27;;
71715;SDS011;59568;52.128;5.434;2024-01-30T00:32:59;11.68;;;6.63;;
71715;SDS011;59568;52.128;5.434;2024-01-30T00:35:26;11.82;;;7.10;;
71715;SDS011;59568;52.128;5.434;2024-01-30T00:37:53;14.15;;;7.30;;
71715;SDS011;59568;52.128;5.434;2024-01-30T00:40:20;11.70;;;6.85;;
71715;SDS011;59568;52.128;5.434;2024-01-30T00:42:47;11.70;;;6.30;;
71715;SDS011;59568;52.128;5.434;2024-01-30T00:45:14;11.55;;;6.10;;
71715;SDS011;59568;52.128;5.434;2024-01-30T00:47:42;10.18;;;6.60;;
71715;SDS011;59568;52.128;5.434;2024-01-30T00:50:09;11.98;;;6.90;;
71715;SDS011;59568;52.128;5.434;2024-01-30T00:52:36;10.07;;;5.88;;
71715;SDS011;59568;52.128;5.434;2024-01-30T00:55:05;12.67;;;6.77;;
71715;SDS011;59568;52.128;5.434;2024-01-30T00:57:32;9.43;;;6.55;;
71715;SDS011;59568;52.128;5.434;2024-01-30T00:59:59;10.77;;;5.82;;
71715;SDS011;59568;52.128;5.434;2024-01-30T01:02:26;12.48;;;6.45;;
71715;SDS011;59568;52.128;5.434;2024-01-30T01:04:53;10.02;;;5.95;;
71715;SDS011;59568;52.128;5.434;2024-01-30T01:07:20;11.47;;;4.93;;
71715;SDS011;59568;52.128;5.434;2024-01-30T01:09:46;11.98;;;6.03;;
71715;SDS011;59568;52.128;5.434;2024-01-30T01:12:14;9.45;;;5.90;;
71715;SDS011;59568;52.128;5.434;2024-01-30T01:14:41;11.82;;;5.97;;
71715;SDS011;59568;52.128;5.434;2024-01-30T01:17:08;10.85;;;5.60;;
71715;SDS011;59568;52.128;5.434;2024-01-30T01:19:35;10.83;;;5.73;;
71715;SDS011;59568;52.128;5.434;2024-01-30T01:22:02;16.30;;;5.88;;
71715;SDS011;59568;52.128;5.434;2024-01-30T01:24:32;9.93;;;5.47;;
71715;SDS011;59568;52.128;5.434;2024-01-30T01:27:00;9.20;;;4.72;;
71715;SDS011;59568;52.128;5.434;2024-01-30T01:29:27;9.90;;;5.97;;
71715;SDS011;59568;52.128;5.434;2024-01-30T01:31:57;9.03;;;5.20;;
71715;SDS011;59568;52.128;5.434;2024-01-30T01:34:24;10.88;;;5.28;;
71715;SDS011;59568;52.128;5.434;2024-01-30T01:36:56;10.10;;;5.53;;
71715;SDS011;59568;52.128;5.434;2024-01-30T01:39:23;10.82;;;5.90;;
71715;SDS011;59568;52.128;5.434;2024-01-30T01:41:50;8.85;;;5.63;;
71715;SDS011;59568;52.128;5.434;2024-01-30T01:44:17;9.13;;;5.47;;
71715;SDS011;59568;52.128;5.434;2024-01-30T01:46:45;11.77;;;5.72;;
71715;SDS011;59568;52.128;5.434;2024-01-30T01:49:12;10.88;;;5.88;;
71715;SDS011;59568;52.128;5.434;2024-01-30T01:51:41;9.60;;;5.45;;
71715;SDS011;59568;52.128;5.434;2024-01-30T01:54:11;19.33;;;5.68;;
71715;SDS011;59568;52.128;5.434;2024-01-30T01:56:38;12.67;;;5.37;;
71715;SDS011;59568;52.128;5.434;2024-01-30T01:59:07;10.30;;;5.35;;
71715;SDS011;59568;52.128;5.434;2024-01-30T02:01:37;9.05;;;6.03;;
71715;SDS011;59568;52.128;5.434;2024-01-30T02:04:07;9.88;;;5.63;;
71715;SDS011;59568;52.128;5.434;2024-01-30T02:06:34;10.70;;;5.20;;
71715;SDS011;59568;52.128;5.434;2024-01-30T02:09:02;11.07;;;5.50;;
71715;SDS011;59568;52.128;5.434;2024-01-30T02:11:31;8.35;;;5.20;;
71715;SDS011;59568;52.128;5.434;2024-01-30T02:14:02;9.40;;;4.88;;
71715;SDS011;59568;52.128;5.434;2024-01-30T02:16:30;8.98;;;5.20;;
71715;SDS011;59568;52.128;5.434;2024-01-30T02:18:58;12.13;;;5.22;;
71715;SDS011;59568;52.128;5.434;2024-01-30T02:21:25;9.47;;;5.60;;
71715;SDS011;59568;52.128;5.434;2024-01-30T02:23:52;9.50;;;4.50;;
71715;SDS011;59568;52.128;5.434;2024-01-30T02:26:21;10.75;;;4.82;;
71715;SDS011;59568;52.128;5.434;2024-01-30T02:28:48;27.75;;;7.22;;
71715;SDS011;59568;52.128;5.434;2024-01-30T02:31:14;10.23;;;5.55;;
71715;SDS011;59568;52.128;5.434;2024-01-30T02:33:42;7.77;;;4.50;;
71715;SDS011;59568;52.128;5.434;2024-01-30T02:36:08;10.68;;;5.53;;
71715;SDS011;59568;52.128;5.434;2024-01-30T02:38:35;10.02;;;5.40;;
71715;SDS011;59568;52.128;5.434;2024-01-30T02:41:02;8.73;;;5.15;;
71715;SDS011;59568;52.128;5.434;2024-01-30T02:43:29;11.68;;;5.20;;
71715;SDS011;59568;52.128;5.434;2024-01-30T02:45:56;11.00;;;5.00;;
71715;SDS011;59568;52.128;5.434;2024-01-30T02:48:24;10.02;;;5.53;;
71715;SDS011;59568;52.128;5.434;2024-01-30T02:50:51;9.50;;;5.80;;
71715;SDS011;59568;52.128;5.434;2024-01-30T02:53:18;7.90;;;4.93;;
71715;SDS011;59568;52.128;5.434;2024-01-30T02:55:45;10.18;;;5.30;;
71715;SDS011;59568;52.128;5.434;2024-01-30T02:58:12;11.00;;;5.30;;
71715;SDS011;59568;52.128;5.434;2024-01-30T03:00:39;10.82;;;6.00;;
71715;SDS011;59568;52.128;5.434;2024-01-30T03:03:06;10.75;;;5.57;;
71715;SDS011;59568;52.128;5.434;2024-01-30T03:05:33;9.90;;;5.88;;
71715;SDS011;59568;52.128;5.434;2024-01-30T03:08:00;11.15;;;6.13;;
71715;SDS011;59568;52.128;5.434;2024-01-30T03:10:27;14.90;;;6.80;;
71715;SDS011;59568;52.128;5.434;2024-01-30T03:12:54;11.10;;;6.15;;
71715;SDS011;59568;52.128;5.434;2024-01-30T03:15:21;10.48;;;6.43;;
71715;SDS011;59568;52.128;5.434;2024-01-30T03:17:47;15.48;;;7.28;;
71715;SDS011;59568;52.128;5.434;2024-01-30T03:20:14;12.93;;;7.35;;
71715;SDS011;59568;52.128;5.434;2024-01-30T03:22:41;14.20;;;7.33;;
71715;SDS011;59568;52.128;5.434;2024-01-30T03:25:08;16.13;;;8.18;;
71715;SDS011;59568;52.128;5.434;2024-01-30T03:27:35;13.63;;;7.50;;
71715;SDS011;59568;52.128;5.434;2024-01-30T03:30:02;15.45;;;7.03;;
71715;SDS011;59568;52.128;5.434;2024-01-30T03:32:29;13.75;;;7.30;;
71715;SDS011;59568;52.128;5.434;2024-01-30T03:34:56;11.53;;;6.77;;
71715;SDS011;59568;52.128;5.434;2024-01-30T03:37:24;13.27;;;7.35;;
71715;SDS011;59568;52.128;5.434;2024-01-30T03:39:51;11.85;;;7.88;;
71715;SDS011;59568;52.128;5.434;2024-01-30T03:42:19;12.40;;;6.97;;
71715;SDS011;59568;52.128;5.434;2024-01-30T03:44:45;11.30;;;6.70;;
71715;SDS011;59568;52.128;5.434;2024-01-30T03:47:12;10.23;;;6.20;;
71715;SDS011;59568;52.128;5.434;2024-01-30T03:49:39;9.13;;;5.82;;
71715;SDS011;59568;52.128;5.434;2024-01-30T03:52:06;10.93;;;6.28;;
71715;SDS011;59568;52.128;5.434;2024-01-30T03:54:33;10.52;;;6.25;;
71715;SDS011;59568;52.128;5.434;2024-01-30T03:57:00;10.70;;;6.28;;
71715;SDS011;59568;52.128;5.434;2024-01-30T03:59:27;10.43;;;5.27;;
71715;SDS011;59568;52.128;5.434;2024-01-30T04:01:54;9.85;;;5.13;;
71715;SDS011;59568;52.128;5.434;2024-01-30T04:04:21;9.85;;;5.60;;
71715;SDS011;59568;52.128;5.434;2024-01-30T04:06:49;11.10;;;6.25;;
71715;SDS011;59568;52.128;5.434;2024-01-30T04:09:16;8.70;;;5.45;;
71715;SDS011;59568;52.128;5.434;2024-01-30T04:11:43;8.40;;;4.97;;
71715;SDS011;59568;52.128;5.434;2024-01-30T04:14:10;8.88;;;4.50;;
71715;SDS011;59568;52.128;5.434;2024-01-30T04:16:37;8.30;;;4.97;;
71715;SDS011;59568;52.128;5.434;2024-01-30T04:19:04;10.60;;;4.93;;
71715;SDS011;59568;52.128;5.434;2024-01-30T04:21:31;9.38;;;4.88;;
71715;SDS011;59568;52.128;5.434;2024-01-30T04:23:58;11.27;;;5.30;;
71715;SDS011;59568;52.128;5.434;2024-01-30T04:26:25;8.48;;;4.78;;
71715;SDS011;59568;52.128;5.434;2024-01-30T04:28:51;10.07;;;5.32;;
71715;SDS011;59568;52.128;5.434;2024-01-30T04:31:18;8.43;;;4.53;;
71715;SDS011;59568;52.128;5.434;2024-01-30T04:33:45;7.30;;;4.13;;
71715;SDS011;59568;52.128;5.434;2024-01-30T04:36:12;9.80;;;3.93;;
71715;SDS011;59568;52.128;5.434;2024-01-30T04:38:39;8.50;;;4.72;;
71715;SDS011;59568;52.128;5.434;2024-01-30T04:41:06;9.13;;;5.22;;
71715;SDS011;59568;52.128;5.434;2024-01-30T04:43:33;10.57;;;5.20;;
71715;SDS011;59568;52.128;5.434;2024-01-30T04:46:00;8.93;;;4.90;;
71715;SDS011;59568;52.128;5.434;2024-01-30T04:48:28;7.17;;;4.07;;
71715;SDS011;59568;52.128;5.434;2024-01-30T04:50:55;8.35;;;4.53;;
71715;SDS011;59568;52.128;5.434;2024-01-30T04:53:23;6.95;;;3.90;;
71715;SDS011;59568;52.128;5.434;2024-01-30T04:55:49;9.02;;;4.53;;
71715;SDS011;59568;52.128;5.434;2024-01-30T04:58:16;7.50;;;4.53;;
71715;SDS011;59568;52.128;5.434;2024-01-30T05:00:43;7.87;;;4.53;;
71715;SDS011;59568;52.128;5.434;2024-01-30T05:03:12;8.57;;;4.50;;
71715;SDS011;59568;52.128;5.434;2024-01-30T05:05:39;9.43;;;4.45;;
71715;SDS011;59568;52.128;5.434;2024-01-30T05:08:06;8.70;;;4.90;;
71715;SDS011;59568;52.128;5.434;2024-01-30T05:10:33;9.52;;;4.50;;
71715;SDS011;59568;52.128;5.434;2024-01-30T05:13:00;7.10;;;4.30;;
71715;SDS011;59568;52.128;5.434;2024-01-30T05:15:27;9.70;;;4.20;;
71715;SDS011;59568;52.128;5.434;2024-01-30T05:17:54;11.20;;;4.32;;
71715;SDS011;59568;52.128;5.434;2024-01-30T05:20:21;8.38;;;4.55;;
71715;SDS011;59568;52.128;5.434;2024-01-30T05:22:48;8.85;;;5.00;;
71715;SDS011;59568;52.128;5.434;2024-01-30T05:25:15;12.60;;;4.83;;
71715;SDS011;59568;52.128;5.434;2024-01-30T05:27:42;8.90;;;4.85;;
71715;SDS011;59568;52.128;5.434;2024-01-30T05:30:09;8.80;;;4.72;;
71715;SDS011;59568;52.128;5.434;2024-01-30T05:32:37;8.60;;;4.57;;
71715;SDS011;59568;52.128;5.434;2024-01-30T05:35:03;9.25;;;4.80;;
71715;SDS011;59568;52.128;5.434;2024-01-30T05:37:30;8.00;;;4.13;;
71715;SDS011;59568;52.128;5.434;2024-01-30T05:39:57;6.60;;;4.15;;
71715;SDS011;59568;52.128;5.434;2024-01-30T05:42:25;9.05;;;4.45;;
71715;SDS011;59568;52.128;5.434;2024-01-30T05:44:52;13.02;;;5.38;;
71715;SDS011;59568;52.128;5.434;2024-01-30T05:47:19;9.57;;;4.82;;
71715;SDS011;59568;52.128;5.434;2024-01-30T05:49:46;8.10;;;4.10;;
71715;SDS011;59568;52.128;5.434;2024-01-30T05:52:12;11.25;;;4.88;;
71715;SDS011;59568;52.128;5.434;2024-01-30T05:54:39;8.07;;;3.88;;
71715;SDS011;59568;52.128;5.434;2024-01-30T05:57:06;8.38;;;4.93;;
71715;SDS011;59568;52.128;5.434;2024-01-30T05:59:33;8.20;;;4.72;;
71715;SDS011;59568;52.128;5.434;2024-01-30T06:02:02;7.73;;;4.30;;
71715;SDS011;59568;52.128;5.434;2024-01-30T06:04:30;9.88;;;4.25;;
71715;SDS011;59568;52.128;5.434;2024-01-30T06:06:57;7.32;;;3.85;;
71715;SDS011;59568;52.128;5.434;2024-01-30T06:09:24;8.05;;;4.20;;
71715;SDS011;59568;52.128;5.434;2024-01-30T06:11:50;8.55;;;4.68;;
71715;SDS011;59568;52.128;5.434;2024-01-30T06:14:18;7.27;;;4.57;;
71715;SDS011;59568;52.128;5.434;2024-01-30T06:16:45;8.43;;;4.97;;
71715;SDS011;59568;52.128;5.434;2024-01-30T06:19:11;9.13;;;5.10;;
71715;SDS011;59568;52.128;5.434;2024-01-30T06:21:38;9.35;;;4.97;;
71715;SDS011;59568;52.128;5.434;2024-01-30T06:24:05;8.07;;;4.65;;
71715;SDS011;59568;52.128;5.434;2024-01-30T06:26:32;7.40;;;4.43;;
71715;SDS011;59568;52.128;5.434;2024-01-30T06:29:00;8.48;;;4.57;;
71715;SDS011;59568;52.128;5.434;2024-01-30T06:31:27;8.73;;;4.47;;
71715;SDS011;59568;52.128;5.434;2024-01-30T06:33:54;8.45;;;4.55;;
71715;SDS011;59568;52.128;5.434;2024-01-30T06:36:21;8.48;;;4.88;;
71715;SDS011;59568;52.128;5.434;2024-01-30T06:38:48;7.13;;;4.27;;
71715;SDS011;59568;52.128;5.434;2024-01-30T06:41:15;7.32;;;4.53;;
71715;SDS011;59568;52.128;5.434;2024-01-30T06:43:42;7.30;;;4.15;;
71715;SDS011;59568;52.128;5.434;2024-01-30T06:46:11;8.85;;;5.00;;
71715;SDS011;59568;52.128;5.434;2024-01-30T06:48:39;8.05;;;4.65;;
71715;SDS011;59568;52.128;5.434;2024-01-30T06:51:07;7.80;;;4.67;;
71715;SDS011;59568;52.128;5.434;2024-01-30T06:53:34;7.43;;;4.55;;
71715;SDS011;59568;52.128;5.434;2024-01-30T06:56:02;6.93;;;4.38;;
71715;SDS011;59568;52.128;5.434;2024-01-30T06:58:29;7.05;;;4.22;;
71715;SDS011;59568;52.128;5.434;2024-01-30T07:00:56;8.05;;;4.13;;
71715;SDS011;59568;52.128;5.434;2024-01-30T07:03:23;7.83;;;4.47;;
71715;SDS011;59568;52.128;5.434;2024-01-30T07:05:50;7.55;;;4.20;;
71715;SDS011;59568;52.128;5.434;2024-01-30T07:08:18;8.43;;;4.65;;
71715;SDS011;59568;52.128;5.434;2024-01-30T07:10:45;8.68;;;4.72;;
71715;SDS011;59568;52.128;5.434;2024-01-30T07:13:12;11.10;;;4.97;;
71715;SDS011;59568;52.128;5.434;2024-01-30T07:15:39;10.23;;;4.93;;
71715;SDS011;59568;52.128;5.434;2024-01-30T07:18:06;10.73;;;5.03;;
71715;SDS011;59568;52.128;5.434;2024-01-30T07:20:34;8.63;;;4.70;;
71715;SDS011;59568;52.128;5.434;2024-01-30T07:23:02;7.90;;;4.28;;
71715;SDS011;59568;52.128;5.434;2024-01-30T07:25:29;8.00;;;4.18;;
71715;SDS011;59568;52.128;5.434;2024-01-30T07:27:56;6.50;;;4.03;;
71715;SDS011;59568;52.128;5.434;2024-01-30T07:30:24;10.07;;;4.60;;
71715;SDS011;59568;52.128;5.434;2024-01-30T07:32:51;8.65;;;4.35;;
71715;SDS011;59568;52.128;5.434;2024-01-30T07:35:18;7.72;;;4.20;;
71715;SDS011;59568;52.128;5.434;2024-01-30T07:37:45;8.25;;;4.30;;
71715;SDS011;59568;52.128;5.434;2024-01-30T07:40:12;8.53;;;4.83;;
71715;SDS011;59568;52.128;5.434;2024-01-30T07:42:39;10.02;;;4.80;;
71715;SDS011;59568;52.128;5.434;2024-01-30T07:45:06;9.98;;;4.55;;
71715;SDS011;59568;52.128;5.434;2024-01-30T07:47:33;7.63;;;4.03;;
71715;SDS011;59568;52.128;5.434;2024-01-30T07:50:00;9.88;;;4.43;;
71715;SDS011;59568;52.128;5.434;2024-01-30T07:52:28;8.90;;;4.40;;
71715;SDS011;59568;52.128;5.434;2024-01-30T07:54:55;8.20;;;4.20;;
71715;SDS011;59568;52.128;5.434;2024-01-30T07:57:22;8.23;;;4.50;;
71715;SDS011;59568;52.128;5.434;2024-01-30T07:59:49;10.52;;;4.10;;
71715;SDS011;59568;52.128;5.434;2024-01-30T08:02:16;10.57;;;4.60;;
71715;SDS011;59568;52.128;5.434;2024-01-30T08:04:43;7.20;;;4.07;;
71715;SDS011;59568;52.128;5.434;2024-01-30T08:07:15;7.82;;;4.18;;
71715;SDS011;59568;52.128;5.434;2024-01-30T08:09:44;9.82;;;4.65;;
71715;SDS011;59568;52.128;5.434;2024-01-30T08:12:11;7.03;;;4.22;;
71715;SDS011;59568;52.128;5.434;2024-01-30T08:14:39;8.38;;;5.00;;
71715;SDS011;59568;52.128;5.434;2024-01-30T08:17:07;7.53;;;4.20;;
71715;SDS011;59568;52.128;5.434;2024-01-30T08:19:35;6.97;;;4.38;;
71715;SDS011;59568;52.128;5.434;2024-01-30T08:22:02;7.57;;;4.25;;
71715;SDS011;59568;52.128;5.434;2024-01-30T08:24:29;7.53;;;4.30;;
71715;SDS011;59568;52.128;5.434;2024-01-30T08:26:56;8.50;;;4.10;;
71715;SDS011;59568;52.128;5.434;2024-01-30T08:29:24;7.47;;;4.20;;
71715;SDS011;59568;52.128;5.434;2024-01-30T08:31:52;7.50;;;4.13;;
71715;SDS011;59568;52.128;5.434;2024-01-30T08:34:19;9.00;;;4.72;;
71715;SDS011;59568;52.128;5.434;2024-01-30T08:36:46;12.07;;;4.90;;
71715;SDS011;59568;52.128;5.434;2024-01-30T08:39:13;8.00;;;4.20;;
71715;SDS011;59568;52.128;5.434;2024-01-30T08:41:41;11.37;;;4.90;;
71715;SDS011;59568;52.128;5.434;2024-01-30T08:44:08;9.02;;;4.68;;
71715;SDS011;59568;52.128;5.434;2024-01-30T08:46:37;8.32;;;4.38;;
71715;SDS011;59568;52.128;5.434;2024-01-30T08:49:04;9.40;;;4.80;;
71715;SDS011;59568;52.128;5.434;2024-01-30T08:51:31;12.18;;;4.55;;
71715;SDS011;59568;52.128;5.434;2024-01-30T08:53:59;9.93;;;4.33;;
71715;SDS011;59568;52.128;5.434;2024-01-30T08:56:26;9.15;;;4.63;;
71715;SDS011;59568;52.128;5.434;2024-01-30T08:58:54;7.70;;;3.53;;
71715;SDS011;59568;52.128;5.434;2024-01-30T09:01:21;9.57;;;4.60;;
71715;SDS011;59568;52.128;5.434;2024-01-30T09:03:48;11.32;;;4.40;;
71715;SDS011;59568;52.128;5.434;2024-01-30T09:06:15;10.13;;;4.57;;
71715;SDS011;59568;52.128;5.434;2024-01-30T09:08:42;11.55;;;4.30;;
71715;SDS011;59568;52.128;5.434;2024-01-30T09:11:09;11.02;;;4.53;;
71715;SDS011;59568;52.128;5.434;2024-01-30T09:13:38;9.48;;;4.53;;
71715;SDS011;59568;52.128;5.434;2024-01-30T09:16:05;8.23;;;4.40;;
71715;SDS011;59568;52.128;5.434;2024-01-30T09:18:33;12.50;;;5.50;;
71715;SDS011;59568;52.128;5.434;2024-01-30T09:21:00;9.73;;;4.28;;
71715;SDS011;59568;52.128;5.434;2024-01-30T09:23:27;10.18;;;4.72;;
71715;SDS011;59568;52.128;5.434;2024-01-30T09:25:55;10.10;;;4.65;;
71715;SDS011;59568;52.128;5.434;2024-01-30T09:28:22;9.70;;;4.72;;
71715;SDS011;59568;52.128;5.434;2024-01-30T09:30:52;10.03;;;4.80;;
71715;SDS011;59568;52.128;5.434;2024-01-30T09:33:20;11.93;;;4.47;;
71715;SDS011;59568;52.128;5.434;2024-01-30T09:35:47;5.93;;;3.78;;
71715;SDS011;59568;52.128;5.434;2024-01-30T09:38:14;10.27;;;4.22;;
71715;SDS011;59568;52.128;5.434;2024-01-30T09:40:41;13.10;;;4.82;;
71715;SDS011;59568;52.128;5.434;2024-01-30T09:43:08;10.07;;;4.27;;
71715;SDS011;59568;52.128;5.434;2024-01-30T09:45:44;7.63;;;4.50;;
71715;SDS011;59568;52.128;5.434;2024-01-30T09:48:13;11.05;;;4.30;;
71715;SDS011;59568;52.128;5.434;2024-01-30T09:50:41;10.27;;;3.83;;
71715;SDS011;59568;52.128;5.434;2024-01-30T09:53:08;10.27;;;4.32;;
71715;SDS011;59568;52.128;5.434;2024-01-30T09:55:35;10.67;;;4.20;;
71715;SDS011;59568;52.128;5.434;2024-01-30T09:58:03;12.05;;;4.30;;
71715;SDS011;59568;52.128;5.434;2024-01-30T10:00:30;8.00;;;4.20;;
71715;SDS011;59568;52.128;5.434;2024-01-30T10:02:57;8.20;;;4.28;;
71715;SDS011;59568;52.128;5.434;2024-01-30T10:05:26;7.25;;;4.50;;
71715;SDS011;59568;52.128;5.434;2024-01-30T10:07:57;9.87;;;4.47;;
71715;SDS011;59568;52.128;5.434;2024-01-30T10:10:24;8.48;;;4.00;;
71715;SDS011;59568;52.128;5.434;2024-01-30T10:12:52;6.82;;;4.07;;
71715;SDS011;59568;52.128;5.434;2024-01-30T10:15:20;7.15;;;4.15;;
71715;SDS011;59568;52.128;5.434;2024-01-30T10:17:47;8.30;;;4.18;;
71715;SDS011;59568;52.128;5.434;2024-01-30T10:20:14;8.57;;;4.00;;
71715;SDS011;59568;52.128;5.434;2024-01-30T10:22:41;8.68;;;3.72;;
71715;SDS011;59568;52.128;5.434;2024-01-30T10:25:12;7.20;;;4.20;;
71715;SDS011;59568;52.128;5.434;2024-01-30T10:27:39;12.15;;;4.43;;
71715;SDS011;59568;52.128;5.434;2024-01-30T10:30:07;8.73;;;4.13;;
71715;SDS011;59568;52.128;5.434;2024-01-30T10:32:34;8.47;;;4.27;;
71715;SDS011;59568;52.128;5.434;2024-01-30T10:35:02;7.47;;;3.67;;
71715;SDS011;59568;52.128;5.434;2024-01-30T10:37:30;7.55;;;4.40;;
71715;SDS011;59568;52.128;5.434;2024-01-30T10:40:02;8.55;;;4.72;;
71715;SDS011;59568;52.128;5.434;2024-01-30T10:42:32;8.93;;;3.97;;
71715;SDS011;59568;52.128;5.434;2024-01-30T10:45:11;8.57;;;4.33;;
71715;SDS011;59568;52.128;5.434;2024-01-30T10:47:48;8.88;;;4.40;;
71715;SDS011;59568;52.128;5.434;2024-01-30T10:50:16;10.55;;;4.55;;
71715;SDS011;59568;52.128;5.434;2024-01-30T10:52:44;8.73;;;4.05;;
71715;SDS011;59568;52.128;5.434;2024-01-30T10:55:12;8.68;;;4.25;;
71715;SDS011;59568;52.128;5.434;2024-01-30T10:57:40;8.87;;;3.90;;
71715;SDS011;59568;52.128;5.434;2024-01-30T11:00:08;6.88;;;3.78;;
71715;SDS011;59568;52.128;5.434;2024-01-30T11:02:41;10.10;;;4.07;;
71715;SDS011;59568;52.128;5.434;2024-01-30T11:05:11;7.38;;;3.70;;
71715;SDS011;59568;52.128;5.434;2024-01-30T11:07:39;10.65;;;4.40;;
71715;SDS011;59568;52.128;5.434;2024-01-30T11:10:11;8.60;;;4.20;;
71715;SDS011;59568;52.128;5.434;2024-01-30T11:12:42;9.52;;;3.47;;
71715;SDS011;59568;52.128;5.434;2024-01-30T11:15:15;8.35;;;3.97;;
71715;SDS011;59568;52.128;5.434;2024-01-30T11:17:50;7.97;;;4.10;;
71715;SDS011;59568;52.128;5.434;2024-01-30T11:22:53;7.83;;;3.73;;
71715;SDS011;59568;52.128;5.434;2024-01-30T11:25:21;8.13;;;3.33;;
71715;SDS011;59568;52.128;5.434;2024-01-30T11:27:52;7.80;;;3.70;;
71715;SDS011;59568;52.128;5.434;2024-01-30T11:35:39;6.83;;;3.00;;
71715;SDS011;59568;52.128;5.434;2024-01-30T11:38:08;7.10;;;3.03;;
71715;SDS011;59568;52.128;5.434;2024-01-30T11:40:37;6.57;;;2.33;;
71715;SDS011;59568;52.128;5.434;2024-01-30T11:43:06;6.50;;;2.60;;
71715;SDS011;59568;52.128;5.434;2024-01-30T11:45:35;5.47;;;1.48;;
71715;SDS011;59568;52.128;5.434;2024-01-30T11:48:03;6.33;;;1.67;;
71715;SDS011;59568;52.128;5.434;2024-01-30T11:50:32;6.90;;;1.52;;
71715;SDS011;59568;52.128;5.434;2024-01-30T11:53:01;3.42;;;1.17;;
71715;SDS011;59568;52.128;5.434;2024-01-30T11:55:31;4.30;;;1.10;;
71715;SDS011;59568;52.128;5.434;2024-01-30T11:58:01;3.67;;;0.82;;
71715;SDS011;59568;52.128;5.434;2024-01-30T12:00:28;6.20;;;0.90;;
71715;SDS011;59568;52.128;5.434;2024-01-30T12:02:57;3.90;;;0.77;;
71715;SDS011;59568;52.128;5.434;2024-01-30T12:05:27;4.00;;;0.60;;
71715;SDS011;59568;52.128;5.434;2024-01-30T12:07:55;2.75;;;0.60;;
71715;SDS011;59568;52.128;5.434;2024-01-30T12:10:26;2.63;;;0.50;;
71715;SDS011;59568;52.128;5.434;2024-01-30T12:12:54;2.30;;;0.50;;
71715;SDS011;59568;52.128;5.434;2024-01-30T12:15:22;4.72;;;0.55;;
71715;SDS011;59568;52.128;5.434;2024-01-30T12:17:49;4.25;;;0.70;;
71715;SDS011;59568;52.128;5.434;2024-01-30T12:20:18;3.20;;;0.75;;
71715;SDS011;59568;52.128;5.434;2024-01-30T12:22:47;1.83;;;0.50;;
71715;SDS011;59568;52.128;5.434;2024-01-30T12:25:16;3.23;;;0.87;;
71715;SDS011;59568;52.128;5.434;2024-01-30T12:27:45;3.03;;;1.20;;
71715;SDS011;59568;52.128;5.434;2024-01-30T12:30:17;4.43;;;1.08;;
71715;SDS011;59568;52.128;5.434;2024-01-30T12:32:49;2.67;;;1.13;;
71715;SDS011;59568;52.128;5.434;2024-01-30T12:35:18;3.15;;;1.77;;
71715;SDS011;59568;52.128;5.434;2024-01-30T12:37:47;4.87;;;1.43;;
71715;SDS011;59568;52.128;5.434;2024-01-30T12:40:15;3.15;;;1.60;;
71715;SDS011;59568;52.128;5.434;2024-01-30T12:42:43;3.20;;;1.00;;
71715;SDS011;59568;52.128;5.434;2024-01-30T12:45:16;7.38;;;1.67;;
71715;SDS011;59568;52.128;5.434;2024-01-30T12:47:47;4.13;;;1.13;;
71715;SDS011;59568;52.128;5.434;2024-01-30T12:50:14;4.43;;;1.10;;
71715;SDS011;59568;52.128;5.434;2024-01-30T12:52:43;3.75;;;0.82;;
71715;SDS011;59568;52.128;5.434;2024-01-30T12:55:15;3.00;;;1.20;;
71715;SDS011;59568;52.128;5.434;2024-01-30T12:57:42;2.15;;;0.98;;
71715;SDS011;59568;52.128;5.434;2024-01-30T13:00:09;7.10;;;1.23;;
71715;SDS011;59568;52.128;5.434;2024-01-30T13:02:37;5.43;;;0.80;;
71715;SDS011;59568;52.128;5.434;2024-01-30T13:05:04;2.33;;;1.17;;
71715;SDS011;59568;52.128;5.434;2024-01-30T13:07:32;2.75;;;0.90;;
71715;SDS011;59568;52.128;5.434;2024-01-30T13:09:59;2.88;;;0.85;;
71715;SDS011;59568;52.128;5.434;2024-01-30T13:12:30;2.90;;;1.00;;
71715;SDS011;59568;52.128;5.434;2024-01-30T13:14:59;4.20;;;1.00;;
71715;SDS011;59568;52.128;5.434;2024-01-30T13:17:27;3.42;;;0.70;;
71715;SDS011;59568;52.128;5.434;2024-01-30T13:19:55;2.72;;;0.68;;
71715;SDS011;59568;52.128;5.434;2024-01-30T13:22:34;1.25;;;0.60;;
71715;SDS011;59568;52.128;5.434;2024-01-30T13:25:01;1.40;;;0.50;;
71715;SDS011;59568;52.128;5.434;2024-01-30T13:27:28;2.90;;;0.37;;
71715;SDS011;59568;52.128;5.434;2024-01-30T13:29:55;2.58;;;0.47;;
71715;SDS011;59568;52.128;5.434;2024-01-30T13:32:22;0.73;;;0.35;;
71715;SDS011;59568;52.128;5.434;2024-01-30T13:34:49;3.40;;;0.73;;
71715;SDS011;59568;52.128;5.434;2024-01-30T13:37:16;2.35;;;0.50;;
71715;SDS011;59568;52.128;5.434;2024-01-30T13:39:43;2.93;;;0.53;;
71715;SDS011;59568;52.128;5.434;2024-01-30T13:42:10;1.33;;;0.40;;
71715;SDS011;59568;52.128;5.434;2024-01-30T13:44:37;2.58;;;0.40;;
71715;SDS011;59568;52.128;5.434;2024-01-30T13:47:04;1.23;;;0.43;;
71715;SDS011;59568;52.128;5.434;2024-01-30T13:49:32;1.40;;;0.47;;
71715;SDS011;59568;52.128;5.434;2024-01-30T13:51:59;3.90;;;0.50;;
71715;SDS011;59568;52.128;5.434;2024-01-30T13:54:26;1.90;;;0.30;;
71715;SDS011;59568;52.128;5.434;2024-01-30T13:56:53;3.13;;;0.30;;
71715;SDS011;59568;52.128;5.434;2024-01-30T13:59:21;1.77;;;0.30;;
71715;SDS011;59568;52.128;5.434;2024-01-30T14:01:51;1.52;;;0.40;;
71715;SDS011;59568;52.128;5.434;2024-01-30T14:04:20;1.10;;;0.30;;
71715;SDS011;59568;52.128;5.434;2024-01-30T14:06:48;2.13;;;0.60;;
71715;SDS011;59568;52.128;5.434;2024-01-30T14:09:26;2.13;;;0.30;;
71715;SDS011;59568;52.128;5.434;2024-01-30T14:11:53;2.20;;;0.47;;
71715;SDS011;59568;52.128;5.434;2024-01-30T14:14:20;2.45;;;0.63;;
71715;SDS011;59568;52.128;5.434;2024-01-30T14:16:47;3.63;;;0.33;;
71715;SDS011;59568;52.128;5.434;2024-01-30T14:19:14;1.30;;;0.30;;
71715;SDS011;59568;52.128;5.434;2024-01-30T14:21:41;4.38;;;0.50;;
71715;SDS011;59568;52.128;5.434;2024-01-30T14:24:10;1.58;;;0.30;;
71715;SDS011;59568;52.128;5.434;2024-01-30T14:26:37;2.05;;;0.30;;
71715;SDS011;59568;52.128;5.434;2024-01-30T14:29:04;2.37;;;0.37;;
71715;SDS011;59568;52.128;5.434;2024-01-30T14:31:31;3.13;;;0.47;;
71715;SDS011;59568;52.128;5.434;2024-01-30T14:33:58;5.57;;;0.40;;
71715;SDS011;59568;52.128;5.434;2024-01-30T14:36:26;3.53;;;0.40;;
71715;SDS011;59568;52.128;5.434;2024-01-30T14:38:55;1.42;;;0.40;;
71715;SDS011;59568;52.128;5.434;2024-01-30T14:41:22;3.20;;;0.30;;
71715;SDS011;59568;52.128;5.434;2024-01-30T14:43:49;2.85;;;0.30;;
71715;SDS011;59568;52.128;5.434;2024-01-30T14:46:16;2.58;;;0.43;;
71715;SDS011;59568;52.128;5.434;2024-01-30T14:48:44;1.90;;;0.47;;
71715;SDS011;59568;52.128;5.434;2024-01-30T14:51:11;2.30;;;0.50;;
71715;SDS011;59568;52.128;5.434;2024-01-30T14:53:38;2.03;;;0.70;;